Time;durP1;ratioP1;P1;durP2;ratioP2;P2;SDS_P1;SDS_P2;PMS_P1;PMS_P2;Temp;Humidity;BMP_temperature;BMP_pressure;BME280_temperature;BME280_humidity;BME280_pressure;Samples;Min_cycle;Max_cycle;Signal;HPM_P1;HPM_P2
2022/04/15 00:00:04;;;;;;;;;;;;;;;11.39;100.00;96335.81;1023404;28;19914;-65
2022/04/15 00:00:36;;;;;;;;;;;;;;;11.41;100.00;96340.84;1027161;28;19914;-67
2022/04/15 00:01:07;;;;;;;;;;;;;;;11.41;100.00;96341.63;1031007;28;19918;-65
2022/04/15 00:01:37;;;;;;;;;;;;;;;11.43;100.00;96347.41;1030829;28;20356;-65
2022/04/15 00:02:09;;;;;;;;;;;;;;;11.42;100.00;96345.81;1023530;28;19918;-64
2022/04/15 00:02:39;;;;;;;;;;;;;;;11.41;100.00;96344.25;1022792;29;19919;-65
2022/04/15 00:03:11;;;;;;;;;;;;;;;11.42;100.00;96343.19;1022459;28;19911;-65
2022/04/15 00:03:43;;;;;;;;;;;;;;;11.42;100.00;96352.91;1027349;28;19992;-65
2022/04/15 00:04:13;;;;;;;;;;;;;;;11.42;100.00;96352.91;1027192;28;19925;-65
2022/04/15 00:04:46;;;;;;;;;;;;;;;11.38;100.00;96349.22;1026949;28;19921;-64
2022/04/15 00:06:08;;;;;;;;;;;;;;;11.39;100.00;96348.94;1029825;28;19981;-66
2022/04/15 00:06:39;;;;;;;;;;;;;;;11.37;100.00;96351.06;1030930;28;19924;-64
2022/04/15 00:07:10;;;;;;;;;;;;;;;11.37;100.00;96345.81;1030571;28;19917;-65
2022/04/15 00:07:40;;;;;;;;;;;;;;;11.38;100.00;96344.75;1031307;28;19918;-64
2022/04/15 00:08:13;;;;;;;;;;;;;;;11.36;100.00;96349.44;1026845;28;19918;-65
2022/04/15 00:08:43;;;;;;;;;;;;;;;11.39;100.00;96348.16;1026832;28;20193;-65
2022/04/15 00:09:14;;;;;;;;;;;;;;;11.39;100.00;96342.91;1026812;28;19929;-65
2022/04/15 00:09:44;;;;;;;;;;;;;;;11.36;100.00;96348.66;1023555;28;20356;-66
2022/04/15 00:10:14;;;;;;;;;;;;;;;11.36;100.00;96349.44;1026919;28;19928;-66
2022/04/15 00:10:45;;;;;;;;;;;;;;;11.36;100.00;96346.81;1030180;28;20004;-65
2022/04/15 00:11:15;;;;;;;;;;;;;;;11.33;100.00;96344.69;1027054;28;19989;-65
2022/04/15 00:11:46;;;;;;;;;;;;;;;11.33;100.00;96342.06;1030924;28;19910;-65
2022/04/15 00:12:28;;;;;;;;;;;;;;;11.33;100.00;96342.06;1030603;28;20434;-66
2022/04/15 00:12:58;;;;;;;;;;;;;;;11.30;100.00;96334.69;1028695;28;20363;-65
2022/04/15 00:13:31;;;;;;;;;;;;;;;11.30;100.00;96334.69;1026678;28;19922;-65
2022/04/15 00:14:01;;;;;;;;;;;;;;;11.31;100.00;96333.66;1019412;28;19974;-66
2022/04/15 00:14:32;;;;;;;;;;;;;;;11.29;100.00;96335.75;1019509;28;20423;-64
2022/04/15 00:15:02;;;;;;;;;;;;;;;11.27;100.00;96336.00;1022704;28;19918;-65
2022/04/15 00:15:32;;;;;;;;;;;;;;;11.28;100.00;96332.31;1026978;28;19922;-65
2022/04/15 00:16:03;;;;;;;;;;;;;;;11.27;100.00;96335.22;1027184;28;19918;-65
2022/04/15 00:16:33;;;;;;;;;;;;;;;11.28;100.00;96336.78;1027111;28;19945;-67
2022/04/15 00:17:04;;;;;;;;;;;;;;;11.27;100.00;96335.22;1030397;28;19918;-67
2022/04/15 00:17:34;;;;;;;;;;;;;;;11.26;100.00;96339.66;1027829;28;19922;-66
2022/04/15 00:18:04;;;;;;;;;;;;;;;11.27;100.00;96335.22;1031460;28;19945;-65
2022/04/15 00:18:35;;;;;;;;;;;;;;;11.28;100.00;96334.16;1034961;28;20394;-65
2022/04/15 00:19:05;;;;;;;;;;;;;;;11.27;100.00;96335.22;1035030;28;20711;-65
2022/04/15 00:19:36;;;;;;;;;;;;;;;11.28;100.00;96331.53;1030852;28;19914;-65
2022/04/15 00:20:07;;;;;;;;;;;;;;;11.28;100.00;96327.06;1026880;28;19925;-65
2022/04/15 00:20:37;;;;;;;;;;;;;;;11.27;100.00;96333.38;1022868;28;19986;-65
2022/04/15 00:21:07;;;;;;;;;;;;;;;11.25;100.00;96332.81;1023146;28;20019;-66
2022/04/15 00:21:38;;;;;;;;;;;;;;;11.27;100.00;96332.59;1023049;28;20374;-65
2022/04/15 00:22:08;;;;;;;;;;;;;;;11.25;100.00;96329.41;1019121;29;19911;-63
2022/04/15 00:22:38;;;;;;;;;;;;;;;11.27;100.00;96330.75;1022922;29;19957;-65
2022/04/15 00:23:10;;;;;;;;;;;;;;;11.25;100.00;96326.78;1022946;28;20018;-67
2022/04/15 00:23:41;;;;;;;;;;;;;;;11.26;100.00;96325.72;1031061;28;20001;-65
2022/04/15 00:24:11;;;;;;;;;;;;;;;11.25;100.00;96332.03;1029906;28;20008;-65
2022/04/15 00:24:42;;;;;;;;;;;;;;;11.25;100.00;96326.78;1031216;28;19952;-66
2022/04/15 00:25:12;;;;;;;;;;;;;;;11.25;100.00;96332.81;1026846;28;19921;-66
2022/04/15 00:25:42;;;;;;;;;;;;;;;11.25;100.00;96329.41;1026796;28;20340;-67
2022/04/15 00:26:13;;;;;;;;;;;;;;;11.25;100.00;96324.16;1031125;28;19917;-66
2022/04/15 00:26:43;;;;;;;;;;;;;;;11.25;100.00;96332.03;1030575;28;19913;-67
2022/04/15 00:27:15;;;;;;;;;;;;;;;11.25;100.00;96332.03;1030740;28;20359;-66
2022/04/15 00:27:45;;;;;;;;;;;;;;;11.26;100.00;96331.00;1030810;28;19914;-67
2022/04/15 00:28:15;;;;;;;;;;;;;;;11.25;100.00;96330.19;1031355;28;19910;-65
2022/04/15 00:28:45;;;;;;;;;;;;;;;11.27;100.00;96325.50;1030951;28;19910;-66
2022/04/15 00:29:19;;;;;;;;;;;;;;;11.27;100.00;96335.22;1025038;28;20009;-66
2022/04/15 00:29:49;;;;;;;;;;;;;;;11.27;100.00;96329.97;1019451;29;19918;-67
2022/04/15 00:30:19;;;;;;;;;;;;;;;11.26;100.00;96325.72;1018506;29;19922;-64
2022/04/15 00:30:49;;;;;;;;;;;;;;;11.26;100.00;96323.09;1023102;28;19921;-66
2022/04/15 00:31:21;;;;;;;;;;;;;;;11.25;100.00;96318.91;1027293;28;19910;-65
2022/04/15 00:31:51;;;;;;;;;;;;;;;11.25;100.00;96321.53;1031123;28;19914;-66
2022/04/15 00:32:27;;;;;;;;;;;;;;;11.26;100.00;96317.84;1030902;28;20411;-65
2022/04/15 00:32:58;;;;;;;;;;;;;;;11.25;100.00;96316.28;1027461;28;19914;-67
2022/04/15 00:33:31;;;;;;;;;;;;;;;11.27;100.00;96324.72;1030857;28;19913;-65
2022/04/15 00:34:02;;;;;;;;;;;;;;;11.25;100.00;96318.91;1022956;29;19910;-65
2022/04/15 00:34:32;;;;;;;;;;;;;;;11.26;100.00;96323.09;1019778;28;19911;-66
2022/04/15 00:35:03;;;;;;;;;;;;;;;11.25;100.00;96319.69;1023071;29;19923;-66
2022/04/15 00:35:33;;;;;;;;;;;;;;;11.25;100.00;96319.69;1019235;29;20018;-66
2022/04/15 00:36:03;;;;;;;;;;;;;;;11.24;100.00;96320.75;1022935;28;19975;-65
2022/04/15 00:36:34;;;;;;;;;;;;;;;11.25;100.00;96317.06;1027041;28;20334;-63
2022/04/15 00:37:04;;;;;;;;;;;;;;;11.24;100.00;96314.69;1026504;28;19938;-65
2022/04/15 00:37:37;;;;;;;;;;;;;;;11.24;100.00;96318.13;1026968;28;19910;-64
2022/04/15 00:38:07;;;;;;;;;;;;;;;11.24;100.00;96314.69;1026825;28;19986;-66
2022/04/15 00:38:37;;;;;;;;;;;;;;;11.24;100.00;96309.44;1023411;28;19970;-65
2022/04/15 00:39:08;;;;;;;;;;;;;;;11.25;100.00;96309.19;1027096;28;19944;-65
2022/04/15 00:39:45;;;;;;;;;;;;;;;11.25;100.00;96311.03;1025950;28;19965;-64
2022/04/15 00:40:15;;;;;;;;;;;;;;;11.26;100.00;96307.34;1027680;28;19922;-67
2022/04/15 00:40:45;;;;;;;;;;;;;;;11.28;100.00;96315.78;1031133;28;20399;-66
2022/04/15 00:41:16;;;;;;;;;;;;;;;11.26;100.00;96312.59;1026806;28;19922;-63
2022/04/15 00:41:46;;;;;;;;;;;;;;;11.25;100.00;96311.81;1027070;28;19914;-65
2022/04/15 00:42:16;;;;;;;;;;;;;;;11.26;100.00;96312.59;1026861;28;19922;-64
2022/04/15 00:42:47;;;;;;;;;;;;;;;11.26;100.00;96318.63;1030099;28;19921;-65
2022/04/15 00:43:17;;;;;;;;;;;;;;;11.25;100.00;96309.19;1026835;28;19944;-61
2022/04/15 00:43:47;;;;;;;;;;;;;;;11.26;100.00;96313.38;1031052;28;19929;-67
2022/04/15 00:44:17;;;;;;;;;;;;;;;11.26;100.00;96313.38;1030206;28;19917;-66
2022/04/15 00:44:54;;;;;;;;;;;;;;;11.26;100.00;96312.59;1030898;28;19976;-65
2022/04/15 00:45:24;;;;;;;;;;;;;;;11.23;100.00;96308.66;1027958;28;19949;-64
2022/04/15 00:46:03;;;;;;;;;;;;;;;11.22;100.00;96308.91;1024122;28;19992;-65
2022/04/15 00:46:37;;;;;;;;;;;;;;;11.23;100.00;96307.84;1023746;28;20435;-65
2022/04/15 00:47:07;;;;;;;;;;;;;;;11.22;100.00;96312.31;1028885;28;19922;-65
2022/04/15 00:47:43;;;;;;;;;;;;;;;11.24;100.00;96317.34;1029492;28;20454;-63
2022/04/15 00:48:13;;;;;;;;;;;;;;;11.22;100.00;96322.03;1022173;28;20432;-65
2022/04/15 00:48:46;;;;;;;;;;;;;;;11.21;100.00;96326.50;1015107;29;20006;-67
2022/04/15 00:49:16;;;;;;;;;;;;;;;11.20;100.00;96329.38;1015106;29;19919;-65
2022/04/15 00:49:46;;;;;;;;;;;;;;;11.20;100.00;96322.28;1014243;29;20476;-66
2022/04/15 00:50:17;;;;;;;;;;;;;;;11.21;100.00;96325.72;1022754;29;19922;-65
2022/04/15 00:50:47;;;;;;;;;;;;;;;11.17;100.00;96325.44;1030130;28;19918;-64
2022/04/15 00:51:17;;;;;;;;;;;;;;;11.16;100.00;96330.91;1034763;28;19988;-67
2022/04/15 00:51:48;;;;;;;;;;;;;;;11.14;100.00;96323.28;1031175;28;19976;-67
2022/04/15 00:52:18;;;;;;;;;;;;;;;11.12;100.00;96325.38;1031144;28;19913;-66
2022/04/15 00:52:49;;;;;;;;;;;;;;;11.08;100.00;96326.91;1026660;28;19914;-62
2022/04/15 00:53:21;;;;;;;;;;;;;;;11.05;100.00;96319.53;1022824;29;20028;-65
2022/04/15 00:53:53;;;;;;;;;;;;;;;11.02;100.00;96323.44;1018894;29;19922;-67
2022/04/15 00:54:23;;;;;;;;;;;;;;;11.00;100.00;96320.31;1019663;28;19918;-66
2022/04/15 00:54:53;;;;;;;;;;;;;;;10.99;100.00;96323.16;1015027;29;20003;-65
2022/04/15 00:55:24;;;;;;;;;;;;;;;11.00;100.00;96314.22;1018750;29;19926;-68
2022/04/15 00:55:57;;;;;;;;;;;;;;;10.99;100.00;96323.16;1018964;29;20327;-65
2022/04/15 00:56:29;;;;;;;;;;;;;;;10.98;100.00;96317.13;1021776;28;19925;-66
2022/04/15 00:57:00;;;;;;;;;;;;;;;11.00;100.00;96319.50;1021326;29;20320;-64
2022/04/15 00:57:30;;;;;;;;;;;;;;;11.00;100.00;96317.69;1025444;28;20740;-67
2022/04/15 00:58:01;;;;;;;;;;;;;;;11.00;100.00;96314.22;1018316;29;19954;-65
2022/04/15 00:58:32;;;;;;;;;;;;;;;11.01;100.00;96315.84;1014859;29;20010;-67
2022/04/15 00:59:04;;;;;;;;;;;;;;;11.01;100.00;96311.38;1018189;29;19942;-63
2022/04/15 00:59:34;;;;;;;;;;;;;;;11.01;100.00;96313.22;1023297;28;20623;-66
2022/04/15 01:00:05;;;;;;;;;;;;;;;11.01;100.00;96314.00;1019786;28;19918;-65
2022/04/15 01:00:35;;;;;;;;;;;;;;;11.01;100.00;96310.59;1026544;28;20380;-66
2022/04/15 01:01:06;;;;;;;;;;;;;;;10.98;100.00;96309.25;1021144;28;19918;-65
2022/04/15 01:01:36;;;;;;;;;;;;;;;10.99;100.00;96313.44;1018895;28;20424;-66
2022/04/15 01:02:06;;;;;;;;;;;;;;;11.00;100.00;96308.97;1018950;29;19918;-66
2022/04/15 01:02:37;;;;;;;;;;;;;;;10.99;100.00;96313.44;1016354;29;20444;-66
2022/04/15 01:03:09;;;;;;;;;;;;;;;10.99;100.00;96308.19;1018469;29;19934;-65
2022/04/15 01:03:40;;;;;;;;;;;;;;;10.98;100.00;96306.63;1018906;29;19950;-67
2022/04/15 01:04:10;;;;;;;;;;;;;;;10.97;100.00;96307.66;1020724;28;19918;-67
2022/04/15 01:04:40;;;;;;;;;;;;;;;10.96;100.00;96308.69;1026958;28;19937;-67
2022/04/15 01:05:11;;;;;;;;;;;;;;;10.96;100.00;96302.66;1022593;28;19914;-66
2022/04/15 01:05:41;;;;;;;;;;;;;;;10.93;100.00;96303.97;1022939;29;19914;-66
2022/04/15 01:06:13;;;;;;;;;;;;;;;10.92;100.00;96307.63;1022780;29;20577;-63
2022/04/15 01:06:43;;;;;;;;;;;;;;;10.92;100.00;96304.19;1014543;29;19967;-64
2022/04/15 01:07:14;;;;;;;;;;;;;;;10.90;100.00;96301.84;1018687;29;19946;-64
2022/04/15 01:07:49;;;;;;;;;;;;;;;10.88;100.00;96306.53;1018859;29;20381;-67
2022/04/15 01:08:21;;;;;;;;;;;;;;;10.89;100.00;96305.50;1020215;28;19962;-66
2022/04/15 01:08:51;;;;;;;;;;;;;;;10.87;100.00;96304.19;1024993;28;19918;-65
2022/04/15 01:09:22;;;;;;;;;;;;;;;10.88;100.00;96300.50;1019676;29;19986;-66
2022/04/15 01:09:52;;;;;;;;;;;;;;;10.86;100.00;96300.72;1022775;29;19962;-66
2022/04/15 01:10:23;;;;;;;;;;;;;;;10.85;100.00;96313.06;1023273;28;19996;-65
2022/04/15 01:10:55;;;;;;;;;;;;;;;10.86;100.00;96306.00;1026731;28;19972;-65
2022/04/15 01:11:26;;;;;;;;;;;;;;;10.86;100.00;96303.38;1019192;29;19919;-66
2022/04/15 01:11:57;;;;;;;;;;;;;;;10.88;100.00;96303.13;1023274;28;19923;-66
2022/04/15 01:12:28;;;;;;;;;;;;;;;10.87;100.00;96304.97;1022723;29;20558;-64
2022/04/15 01:12:58;;;;;;;;;;;;;;;10.87;100.00;96302.34;1023565;28;19985;-66
2022/04/15 01:13:31;;;;;;;;;;;;;;;10.86;100.00;96308.59;1022759;29;20384;-66
2022/04/15 01:14:04;;;;;;;;;;;;;;;10.66;100.00;96275.09;1023281;28;19918;-65
2022/04/15 01:14:35;;;;;;;;;;;;;;;10.86;100.00;96308.59;1022760;29;19950;-66
2022/04/15 01:15:07;;;;;;;;;;;;;;;10.88;100.00;96301.28;1019887;29;19919;-66
2022/04/15 01:15:37;;;;;;;;;;;;;;;10.87;100.00;96304.97;1019324;29;19926;-67
2022/04/15 01:16:07;;;;;;;;;;;;;;;10.87;100.00;96307.59;1019255;29;20388;-66
2022/04/15 01:16:37;;;;;;;;;;;;;;;10.87;100.00;96304.97;1023095;28;20001;-65
2022/04/15 01:17:08;;;;;;;;;;;;;;;10.87;100.00;96302.34;1026245;28;19929;-66
2022/04/15 01:17:38;;;;;;;;;;;;;;;10.89;100.00;96308.13;1026656;28;19921;-65
2022/04/15 01:18:09;;;;;;;;;;;;;;;10.90;100.00;96309.72;1026974;28;20630;-65
2022/04/15 01:18:39;;;;;;;;;;;;;;;10.90;100.00;96307.09;1026773;28;19918;-67
2022/04/15 01:19:10;;;;;;;;;;;;;;;10.91;100.00;96306.03;1026705;28;19926;-66
2022/04/15 01:19:40;;;;;;;;;;;;;;;10.93;100.00;96309.22;1022891;28;20005;-67
2022/04/15 01:20:11;;;;;;;;;;;;;;;10.93;100.00;96311.03;1026793;28;20037;-67
2022/04/15 01:20:42;;;;;;;;;;;;;;;10.92;100.00;96305.00;1018958;29;20308;-66
2022/04/15 01:21:15;;;;;;;;;;;;;;;10.93;100.00;96309.22;1015171;29;20613;-65
2022/04/15 01:21:45;;;;;;;;;;;;;;;10.94;100.00;96305.53;1014963;29;20491;-67
2022/04/15 01:22:16;;;;;;;;;;;;;;;10.94;100.00;96308.16;1019000;29;19947;-64
2022/04/15 01:22:52;;;;;;;;;;;;;;;10.96;100.00;96307.91;1023733;28;19994;-66
2022/04/15 01:23:23;;;;;;;;;;;;;;;10.96;100.00;96308.69;1030964;28;19917;-66
2022/04/15 01:23:53;;;;;;;;;;;;;;;10.96;100.00;96303.44;1026888;28;19964;-65
2022/04/15 01:24:24;;;;;;;;;;;;;;;10.95;100.00;96295.84;1027523;28;19924;-66
2022/04/15 01:24:54;;;;;;;;;;;;;;;10.95;100.00;96301.88;1026848;28;19921;-66
2022/04/15 01:25:24;;;;;;;;;;;;;;;10.96;100.00;96303.44;1022849;28;20412;-65
2022/04/15 01:25:54;;;;;;;;;;;;;;;10.97;100.00;96304.25;1020609;29;19919;-65
2022/04/15 01:26:25;;;;;;;;;;;;;;;10.96;100.00;96295.56;1018829;29;19918;-67
2022/04/15 01:26:55;;;;;;;;;;;;;;;10.97;100.00;96294.53;1018268;29;19926;-65
2022/04/15 01:27:26;;;;;;;;;;;;;;;10.97;100.00;96291.13;1026780;28;19914;-66
2022/04/15 01:27:56;;;;;;;;;;;;;;;10.97;100.00;96294.53;1026848;28;19914;-66
2022/04/15 01:28:27;;;;;;;;;;;;;;;10.97;100.00;96291.91;1022658;29;20723;-66
2022/04/15 01:28:57;;;;;;;;;;;;;;;10.97;100.00;96289.28;1022803;29;19933;-65
2022/04/15 01:29:27;;;;;;;;;;;;;;;10.79;100.00;96266.03;1022746;29;19919;-67
2022/04/15 01:30:00;;;;;;;;;;;;;;;10.96;100.00;96295.56;1019279;29;19974;-65
2022/04/15 01:30:31;;;;;;;;;;;;;;;10.97;100.00;96297.16;1019705;28;19910;-67
2022/04/15 01:31:01;;;;;;;;;;;;;;;10.97;100.00;96299.00;1020299;28;19965;-65
2022/04/15 01:31:34;;;;;;;;;;;;;;;10.98;100.00;96301.38;1020056;28;19915;-64
2022/04/15 01:32:05;;;;;;;;;;;;;;;10.99;100.00;96312.66;1023249;28;19914;-65
2022/04/15 01:32:35;;;;;;;;;;;;;;;10.99;100.00;96312.66;1022461;28;19910;-67
2022/04/15 01:33:05;;;;;;;;;;;;;;;10.98;100.00;96311.88;1018855;29;19922;-66
2022/04/15 01:33:36;;;;;;;;;;;;;;;10.99;100.00;96317.91;1018667;29;19950;-67
2022/04/15 01:34:06;;;;;;;;;;;;;;;11.00;100.00;96314.22;1023050;28;19919;-65
2022/04/15 01:34:36;;;;;;;;;;;;;;;11.01;100.00;96326.34;1030517;28;19917;-66
2022/04/15 01:35:07;;;;;;;;;;;;;;;11.02;100.00;96323.44;1034786;28;20008;-63
2022/04/15 01:35:37;;;;;;;;;;;;;;;11.03;100.00;96330.31;1029748;28;20422;-67
2022/04/15 01:36:07;;;;;;;;;;;;;;;11.06;100.00;96340.28;1024948;28;19978;-65
2022/04/15 01:36:38;;;;;;;;;;;;;;;11.06;100.00;96348.16;1026475;28;19964;-66
2022/04/15 01:37:08;;;;;;;;;;;;;;;11.06;100.00;96340.28;1026220;28;19961;-66
2022/04/15 01:37:38;;;;;;;;;;;;;;;11.09;100.00;96345.03;1025800;28;19910;-65
2022/04/15 01:38:14;;;;;;;;;;;;;;;11.08;100.00;96353.97;1026805;28;20037;-65
2022/04/15 01:38:44;;;;;;;;;;;;;;;11.07;100.00;96346.34;1022463;29;19918;-66
2022/04/15 01:39:15;;;;;;;;;;;;;;;11.08;100.00;96359.22;1023549;28;20002;-65
2022/04/15 01:39:45;;;;;;;;;;;;;;;11.05;100.00;96354.47;1022723;29;19914;-66
2022/04/15 01:40:16;;;;;;;;;;;;;;;11.06;100.00;96361.28;1023474;28;19922;-66
2022/04/15 01:40:46;;;;;;;;;;;;;;;11.05;100.00;96364.97;1022664;29;20021;-66
2022/04/15 01:41:16;;;;;;;;;;;;;;;11.04;100.00;96366.03;1022675;28;19929;-66
2022/04/15 01:41:47;;;;;;;;;;;;;;;11.04;100.00;96365.25;1026826;28;19936;-65
2022/04/15 01:42:17;;;;;;;;;;;;;;;11.04;100.00;96368.66;1019915;29;19954;-66
2022/04/15 01:42:48;;;;;;;;;;;;;;;11.02;100.00;96369.94;1018373;29;19966;-63
2022/04/15 01:43:18;;;;;;;;;;;;;;;11.05;100.00;96370.22;1018905;29;19978;-66
2022/04/15 01:43:49;;;;;;;;;;;;;;;11.04;100.00;96368.66;1021164;28;19914;-65
2022/04/15 01:44:19;;;;;;;;;;;;;;;11.00;100.00;96372.81;1031000;28;19913;-65
2022/04/15 01:44:49;;;;;;;;;;;;;;;11.02;100.00;96373.34;1026372;28;19935;-66
2022/04/15 01:45:19;;;;;;;;;;;;;;;11.02;100.00;96372.56;1018750;29;20389;-67
2022/04/15 01:45:50;;;;;;;;;;;;;;;11.02;100.00;96381.22;1014823;29;19924;-66
2022/04/15 01:46:20;;;;;;;;;;;;;;;11.04;100.00;96381.78;1012541;29;19951;-66
2022/04/15 01:46:50;;;;;;;;;;;;;;;11.05;100.00;96383.34;1014103;29;19915;-66
2022/04/15 01:47:21;;;;;;;;;;;;;;;11.02;100.00;96381.22;1018698;28;19911;-66
2022/04/15 01:47:52;;;;;;;;;;;;;;;11.02;100.00;96378.59;1023408;28;19911;-66
2022/04/15 01:48:22;;;;;;;;;;;;;;;11.03;100.00;96384.63;1026783;28;19949;-65
2022/04/15 01:48:52;;;;;;;;;;;;;;;11.01;100.00;96387.53;1022442;28;19914;-66
2022/04/15 01:49:23;;;;;;;;;;;;;;;11.01;100.00;96384.91;1018909;29;19911;-66
2022/04/15 01:49:53;;;;;;;;;;;;;;;11.01;100.00;96390.16;1026046;28;19922;-65
2022/04/15 01:50:23;;;;;;;;;;;;;;;11.01;100.00;96379.66;1014924;29;19962;-67
2022/04/15 01:50:54;;;;;;;;;;;;;;;11.00;100.00;96382.50;1018816;29;19918;-66
2022/04/15 01:51:24;;;;;;;;;;;;;;;11.01;100.00;96381.50;1010666;29;20739;-66
2022/04/15 01:51:56;;;;;;;;;;;;;;;11.00;100.00;96382.50;1014853;29;19921;-67
2022/04/15 01:52:27;;;;;;;;;;;;;;;11.00;100.00;96383.31;1014831;29;19912;-67
2022/04/15 01:52:58;;;;;;;;;;;;;;;11.00;100.00;96378.06;1014474;29;19911;-66
2022/04/15 01:53:28;;;;;;;;;;;;;;;11.00;100.00;96383.31;1015469;29;19918;-66
2022/04/15 01:53:59;;;;;;;;;;;;;;;11.00;100.00;96385.94;1014613;28;19911;-66
2022/04/15 01:54:29;;;;;;;;;;;;;;;10.99;100.00;96376.47;1026277;28;19970;-66
2022/04/15 01:54:59;;;;;;;;;;;;;;;10.99;100.00;96381.72;1023134;28;19907;-64
2022/04/15 01:55:30;;;;;;;;;;;;;;;11.00;100.00;96383.31;1031122;28;20053;-64
2022/04/15 01:56:00;;;;;;;;;;;;;;;11.03;100.00;96389.91;1027467;28;19956;-65
2022/04/15 01:56:30;;;;;;;;;;;;;;;11.00;100.00;96383.31;1024810;28;19953;-65
2022/04/15 01:57:00;;;;;;;;;;;;;;;10.99;100.00;96380.94;1026324;28;19915;-64
2022/04/15 01:57:31;;;;;;;;;;;;;;;11.00;100.00;96378.06;1018964;29;19918;-65
2022/04/15 01:58:01;;;;;;;;;;;;;;;10.99;100.00;96384.34;1015434;29;19908;-67
2022/04/15 01:58:33;;;;;;;;;;;;;;;11.00;100.00;96385.94;1019385;28;19967;-66
2022/04/15 01:59:04;;;;;;;;;;;;;;;11.01;100.00;96387.53;1027623;28;20381;-65
2022/04/15 01:59:34;;;;;;;;;;;;;;;11.00;100.00;96375.44;1031261;28;19968;-66
2022/04/15 02:00:05;;;;;;;;;;;;;;;10.99;100.00;96380.94;1031202;28;20308;-66
2022/04/15 02:00:36;;;;;;;;;;;;;;;10.99;100.00;96379.09;1023340;28;19961;-65
2022/04/15 02:01:08;;;;;;;;;;;;;;;10.97;100.00;96383.03;1013955;29;19922;-66
2022/04/15 02:01:38;;;;;;;;;;;;;;;10.96;100.00;96379.59;1015202;29;19946;-65
2022/04/15 02:02:09;;;;;;;;;;;;;;;10.97;100.00;96377.78;1015444;29;20605;-67
2022/04/15 02:02:39;;;;;;;;;;;;;;;10.94;100.00;96381.69;1019408;29;20050;-64
2022/04/15 02:03:09;;;;;;;;;;;;;;;10.94;100.00;96376.44;1015348;29;20009;-65
2022/04/15 02:03:39;;;;;;;;;;;;;;;10.95;100.00;96379.84;1023314;28;20480;-66
2022/04/15 02:04:10;;;;;;;;;;;;;;;10.95;100.00;96380.63;1027390;28;19925;-65
2022/04/15 02:04:40;;;;;;;;;;;;;;;10.94;100.00;96379.06;1031487;28;19953;-66
2022/04/15 02:05:10;;;;;;;;;;;;;;;10.93;100.00;96381.91;1030444;28;19928;-65
2022/04/15 02:05:41;;;;;;;;;;;;;;;10.92;100.00;96378.50;1026688;28;19961;-65
2022/04/15 02:06:14;;;;;;;;;;;;;;;10.93;100.00;96377.50;1023295;28;20028;-66
2022/04/15 02:06:44;;;;;;;;;;;;;;;10.95;100.00;96382.47;1022945;29;19929;-66
2022/04/15 02:07:14;;;;;;;;;;;;;;;10.95;100.00;96377.22;1020858;28;19925;-66
2022/04/15 02:07:44;;;;;;;;;;;;;;;10.94;100.00;96376.44;1024072;28;19946;-65
2022/04/15 02:08:15;;;;;;;;;;;;;;;10.92;100.00;96375.88;1023275;29;19919;-65
2022/04/15 02:08:45;;;;;;;;;;;;;;;10.91;100.00;96382.19;1023211;28;19911;-66
2022/04/15 02:09:15;;;;;;;;;;;;;;;10.91;100.00;96379.56;1027353;28;19918;-65
2022/04/15 02:09:46;;;;;;;;;;;;;;;10.93;100.00;96380.13;1023390;28;19906;-67
2022/04/15 02:10:16;;;;;;;;;;;;;;;10.94;100.00;96383.53;1027937;28;19918;-65
2022/04/15 02:10:46;;;;;;;;;;;;;;;10.93;100.00;96385.38;1031564;28;19914;-66
2022/04/15 02:11:17;;;;;;;;;;;;;;;10.92;100.00;96381.13;1028120;28;20615;-66
2022/04/15 02:11:47;;;;;;;;;;;;;;;10.91;100.00;96384.03;1024186;29;19910;-64
2022/04/15 02:12:17;;;;;;;;;;;;;;;10.90;100.00;96383.22;1014037;29;19911;-66
2022/04/15 02:12:47;;;;;;;;;;;;;;;10.89;100.00;96384.25;1016299;29;20237;-65
2022/04/15 02:13:18;;;;;;;;;;;;;;;10.89;100.00;96386.09;1016218;29;19915;-65
2022/04/15 02:13:48;;;;;;;;;;;;;;;10.71;100.00;96353.13;1020662;28;19918;-68
2022/04/15 02:14:18;;;;;;;;;;;;;;;10.89;100.00;96386.88;1028042;28;20009;-66
2022/04/15 02:14:49;;;;;;;;;;;;;;;10.89;100.00;96389.50;1024091;29;19910;-64
2022/04/15 02:15:19;;;;;;;;;;;;;;;10.87;100.00;96383.72;1028136;28;19914;-65
2022/04/15 02:15:49;;;;;;;;;;;;;;;10.88;100.00;96384.50;1024007;29;19910;-64
2022/04/15 02:16:20;;;;;;;;;;;;;;;10.89;100.00;96384.25;1024081;28;19922;-65
2022/04/15 02:16:52;;;;;;;;;;;;;;;10.89;100.00;96389.50;1027537;28;19957;-65
2022/04/15 02:17:25;;;;;;;;;;;;;;;10.72;100.00;96359.94;1026054;28;19921;-64
2022/04/15 02:17:57;;;;;;;;;;;;;;;10.89;100.00;96384.25;1028074;28;19910;-66
2022/04/15 02:18:27;;;;;;;;;;;;;;;10.88;100.00;96390.56;1024055;29;20287;-66
2022/04/15 02:18:58;;;;;;;;;;;;;;;10.88;100.00;96387.13;1024701;28;19933;-65
2022/04/15 02:19:28;;;;;;;;;;;;;;;10.88;100.00;96387.13;1028402;28;19922;-65
2022/04/15 02:19:58;;;;;;;;;;;;;;;10.87;100.00;96388.19;1024160;29;19914;-66
2022/04/15 02:20:29;;;;;;;;;;;;;;;10.85;100.00;96385.78;1016019;29;19919;-64
2022/04/15 02:21:01;;;;;;;;;;;;;;;10.86;100.00;96392.63;1020248;29;19986;-65
2022/04/15 02:21:34;;;;;;;;;;;;;;;10.86;100.00;96387.38;1020794;28;19929;-66
2022/04/15 02:22:05;;;;;;;;;;;;;;;10.87;100.00;96396.06;1025529;28;19922;-65
2022/04/15 02:22:38;;;;;;;;;;;;;;;10.88;100.00;96395.81;1028816;28;19922;-66
2022/04/15 02:23:08;;;;;;;;;;;;;;;10.87;100.00;96388.97;1024264;29;20300;-64
2022/04/15 02:23:38;;;;;;;;;;;;;;;10.85;100.00;96385.78;1020749;29;19918;-67
2022/04/15 02:24:09;;;;;;;;;;;;;;;10.86;100.00;96387.38;1025637;28;19919;-63
2022/04/15 02:24:39;;;;;;;;;;;;;;;10.85;100.00;96388.41;1028175;28;19918;-65
2022/04/15 02:25:09;;;;;;;;;;;;;;;10.83;100.00;96393.94;1032370;28;20284;-65
2022/04/15 02:25:40;;;;;;;;;;;;;;;10.83;100.00;96393.94;1036060;28;19948;-66
2022/04/15 02:26:10;;;;;;;;;;;;;;;10.82;100.00;96397.56;1036170;28;19972;-65
2022/04/15 02:26:40;;;;;;;;;;;;;;;10.82;100.00;96394.94;1031592;28;20363;-63
2022/04/15 02:27:11;;;;;;;;;;;;;;;10.81;100.00;96398.63;1027845;28;19918;-66
2022/04/15 02:27:43;;;;;;;;;;;;;;;10.82;100.00;96400.19;1029755;28;20400;-65
2022/04/15 02:28:14;;;;;;;;;;;;;;;10.84;100.00;96399.97;1026249;29;19914;-66
2022/04/15 02:28:44;;;;;;;;;;;;;;;10.84;100.00;96400.75;1026259;28;20553;-66
2022/04/15 02:29:14;;;;;;;;;;;;;;;10.82;100.00;96394.94;1029807;28;19949;-68
2022/04/15 02:29:45;;;;;;;;;;;;;;;10.84;100.00;96394.72;1030099;28;19910;-66
2022/04/15 02:30:15;;;;;;;;;;;;;;;10.84;100.00;96392.09;1030075;28;19974;-66
2022/04/15 02:30:49;;;;;;;;;;;;;;;10.85;100.00;96396.28;1029787;28;20284;-65
2022/04/15 02:31:19;;;;;;;;;;;;;;;10.87;100.00;96393.44;1029815;28;19918;-67
2022/04/15 02:31:49;;;;;;;;;;;;;;;10.89;100.00;96392.13;1029871;28;19919;-65
2022/04/15 02:32:19;;;;;;;;;;;;;;;10.87;100.00;96391.59;1025598;29;19922;-68
2022/04/15 02:32:50;;;;;;;;;;;;;;;10.87;100.00;96388.97;1027733;28;19918;-65
2022/04/15 02:33:20;;;;;;;;;;;;;;;10.89;100.00;96386.88;1024247;29;19918;-66
2022/04/15 02:33:50;;;;;;;;;;;;;;;10.91;100.00;96390.06;1020182;29;19915;-65
2022/04/15 02:34:20;;;;;;;;;;;;;;;10.93;100.00;96392.44;1024052;29;20482;-68
2022/04/15 02:34:51;;;;;;;;;;;;;;;10.93;100.00;96397.69;1024108;28;19926;-67
2022/04/15 02:35:21;;;;;;;;;;;;;;;10.93;100.00;96393.25;1028238;28;19942;-64
2022/04/15 02:35:51;;;;;;;;;;;;;;;10.91;100.00;96395.31;1031909;28;20407;-65
2022/04/15 02:36:22;;;;;;;;;;;;;;;10.91;100.00;96392.69;1032199;28;20481;-66
2022/04/15 02:36:52;;;;;;;;;;;;;;;10.93;100.00;96388.00;1031212;28;19961;-64
2022/04/15 02:37:22;;;;;;;;;;;;;;;10.95;100.00;96395.59;1032478;28;19929;-65
2022/04/15 02:37:52;;;;;;;;;;;;;;;10.94;100.00;96399.28;1031950;28;19980;-66
2022/04/15 02:38:23;;;;;;;;;;;;;;;10.91;100.00;96395.31;1032160;28;20360;-67
2022/04/15 02:38:53;;;;;;;;;;;;;;;10.92;100.00;96396.88;1027683;28;19922;-66